sensor_id;sensor_type;location;lat;lon;timestamp;temperature;humidity
5631;DHT22;2837;50.990;7.124;2023-04-12T05:00:27;9.90;99.90
5631;DHT22;2837;50.990;7.124;2023-04-12T05:02:53;9.80;99.90
5631;DHT22;2837;50.990;7.124;2023-04-12T05:05:19;9.90;99.90
5631;DHT22;2837;50.990;7.124;2023-04-12T05:07:47;10.00;99.90
5631;DHT22;2837;50.990;7.124;2023-04-12T05:10:13;9.90;99.90
5631;DHT22;2837;50.990;7.124;2023-04-12T05:12:39;9.90;99.90
5631;DHT22;2837;50.990;7.124;2023-04-12T05:15:05;9.90;99.90
5631;DHT22;2837;50.990;7.124;2023-04-12T05:17:31;9.90;99.90
5631;DHT22;2837;50.990;7.124;2023-04-12T05:19:59;9.90;99.90
5631;DHT22;2837;50.990;7.124;2023-04-12T05:22:24;9.90;99.90
5631;DHT22;2837;50.990;7.124;2023-04-12T05:24:50;9.90;99.90
5631;DHT22;2837;50.990;7.124;2023-04-12T05:27:16;9.90;99.90
5631;DHT22;2837;50.990;7.124;2023-04-12T05:29:42;9.80;99.90
5631;DHT22;2837;50.990;7.124;2023-04-12T05:32:08;9.80;99.90
5631;DHT22;2837;50.990;7.124;2023-04-12T05:34:33;9.90;99.90
5631;DHT22;2837;50.990;7.124;2023-04-12T05:36:59;9.90;99.90
5631;DHT22;2837;50.990;7.124;2023-04-12T05:39:26;9.90;99.90
5631;DHT22;2837;50.990;7.124;2023-04-12T05:41:52;9.80;99.90
5631;DHT22;2837;50.990;7.124;2023-04-12T05:44:17;9.90;99.90
5631;DHT22;2837;50.990;7.124;2023-04-12T05:46:43;9.80;99.90
5631;DHT22;2837;50.990;7.124;2023-04-12T05:49:09;9.80;99.90
5631;DHT22;2837;50.990;7.124;2023-04-12T05:51:35;9.80;99.90
5631;DHT22;2837;50.990;7.124;2023-04-12T05:54:00;9.80;99.90
5631;DHT22;2837;50.990;7.124;2023-04-12T05:56:28;9.80;99.90
5631;DHT22;2837;50.990;7.124;2023-04-12T05:58:53;9.80;99.90
5631;DHT22;2837;50.990;7.124;2023-04-12T06:01:19;9.80;99.90
5631;DHT22;2837;50.990;7.124;2023-04-12T06:03:47;9.70;99.90
5631;DHT22;2837;50.990;7.124;2023-04-12T06:06:12;9.70;99.90
5631;DHT22;2837;50.990;7.124;2023-04-12T06:08:38;9.70;99.90
5631;DHT22;2837;50.990;7.124;2023-04-12T06:11:04;9.90;99.90
5631;DHT22;2837;50.990;7.124;2023-04-12T06:13:29;9.80;99.90
5631;DHT22;2837;50.990;7.124;2023-04-12T06:15:55;10.20;99.90
5631;DHT22;2837;50.990;7.124;2023-04-12T06:18:21;9.80;99.90
5631;DHT22;2837;50.990;7.124;2023-04-12T06:20:46;9.80;99.90
5631;DHT22;2837;50.990;7.124;2023-04-12T06:23:12;10.00;99.90
5631;DHT22;2837;50.990;7.124;2023-04-12T06:25:37;9.90;99.90
5631;DHT22;2837;50.990;7.124;2023-04-12T06:28:03;9.90;99.90
5631;DHT22;2837;50.990;7.124;2023-04-12T06:30:29;9.80;99.90
5631;DHT22;2837;50.990;7.124;2023-04-12T06:32:54;9.80;99.90
5631;DHT22;2837;50.990;7.124;2023-04-12T06:35:21;9.90;99.90
5631;DHT22;2837;50.990;7.124;2023-04-12T06:37:47;9.90;99.90
5631;DHT22;2837;50.990;7.124;2023-04-12T06:40:12;9.90;99.90
5631;DHT22;2837;50.990;7.124;2023-04-12T06:42:38;10.00;99.90
5631;DHT22;2837;50.990;7.124;2023-04-12T06:45:04;9.80;99.90
5631;DHT22;2837;50.990;7.124;2023-04-12T06:47:31;9.90;99.90
5631;DHT22;2837;50.990;7.124;2023-04-12T06:49:57;9.90;99.90
5631;DHT22;2837;50.990;7.124;2023-04-12T06:52:25;10.10;99.90
5631;DHT22;2837;50.990;7.124;2023-04-12T06:54:52;9.80;99.90
5631;DHT22;2837;50.990;7.124;2023-04-12T06:57:17;9.80;99.90
5631;DHT22;2837;50.990;7.124;2023-04-12T06:59:43;9.80;99.90
5631;DHT22;2837;50.990;7.124;2023-04-12T07:02:08;9.80;99.90
5631;DHT22;2837;50.990;7.124;2023-04-12T07:04:34;9.90;99.90
5631;DHT22;2837;50.990;7.124;2023-04-12T07:06:59;9.90;99.90
5631;DHT22;2837;50.990;7.124;2023-04-12T07:09:25;9.90;99.90
5631;DHT22;2837;50.990;7.124;2023-04-12T07:11:51;9.90;99.90
5631;DHT22;2837;50.990;7.124;2023-04-12T07:14:17;9.90;99.90
5631;DHT22;2837;50.990;7.124;2023-04-12T07:16:42;10.00;99.90
5631;DHT22;2837;50.990;7.124;2023-04-12T07:19:08;10.00;99.90
5631;DHT22;2837;50.990;7.124;2023-04-12T07:21:34;10.10;99.90
5631;DHT22;2837;50.990;7.124;2023-04-12T07:23:59;10.20;99.90
5631;DHT22;2837;50.990;7.124;2023-04-12T07:26:26;10.20;99.90
5631;DHT22;2837;50.990;7.124;2023-04-12T07:28:51;10.10;99.90
5631;DHT22;2837;50.990;7.124;2023-04-12T07:31:17;10.20;99.90
5631;DHT22;2837;50.990;7.124;2023-04-12T07:33:43;10.10;99.90
5631;DHT22;2837;50.990;7.124;2023-04-12T07:36:09;10.10;99.90
5631;DHT22;2837;50.990;7.124;2023-04-12T07:38:35;10.10;99.90
5631;DHT22;2837;50.990;7.124;2023-04-12T07:41:01;10.00;99.90
5631;DHT22;2837;50.990;7.124;2023-04-12T07:43:26;10.10;99.90
5631;DHT22;2837;50.990;7.124;2023-04-12T07:45:54;10.20;99.90
5631;DHT22;2837;50.990;7.124;2023-04-12T07:48:20;10.20;99.90
5631;DHT22;2837;50.990;7.124;2023-04-12T07:50:46;10.20;99.90
5631;DHT22;2837;50.990;7.124;2023-04-12T07:53:19;10.20;99.90
5631;DHT22;2837;50.990;7.124;2023-04-12T07:55:45;10.30;99.90
5631;DHT22;2837;50.990;7.124;2023-04-12T07:58:11;10.30;99.90
5631;DHT22;2837;50.990;7.124;2023-04-12T08:00:37;10.30;99.90
5631;DHT22;2837;50.990;7.124;2023-04-12T08:03:02;10.30;99.90
5631;DHT22;2837;50.990;7.124;2023-04-12T08:05:28;10.30;99.90
5631;DHT22;2837;50.990;7.124;2023-04-12T08:07:53;10.40;99.90
5631;DHT22;2837;50.990;7.124;2023-04-12T08:10:20;10.40;99.90
5631;DHT22;2837;50.990;7.124;2023-04-12T08:12:45;10.70;99.90
5631;DHT22;2837;50.990;7.124;2023-04-12T08:15:12;10.50;99.90
5631;DHT22;2837;50.990;7.124;2023-04-12T08:17:37;10.50;99.90
5631;DHT22;2837;50.990;7.124;2023-04-12T08:20:03;10.50;99.90
5631;DHT22;2837;50.990;7.124;2023-04-12T08:22:29;10.50;99.90
5631;DHT22;2837;50.990;7.124;2023-04-12T08:24:55;10.60;99.90
5631;DHT22;2837;50.990;7.124;2023-04-12T08:27:20;10.60;99.90
5631;DHT22;2837;50.990;7.124;2023-04-12T08:29:46;10.60;99.90
5631;DHT22;2837;50.990;7.124;2023-04-12T08:32:12;10.60;99.90
5631;DHT22;2837;50.990;7.124;2023-04-12T08:34:38;10.70;99.90
5631;DHT22;2837;50.990;7.124;2023-04-12T08:37:03;10.70;99.90
5631;DHT22;2837;50.990;7.124;2023-04-12T08:39:30;10.70;99.90
5631;DHT22;2837;50.990;7.124;2023-04-12T08:41:57;10.70;99.90
5631;DHT22;2837;50.990;7.124;2023-04-12T08:44:34;10.90;99.90
5631;DHT22;2837;50.990;7.124;2023-04-12T08:47:05;10.90;99.90
5631;DHT22;2837;50.990;7.124;2023-04-12T08:49:32;11.00;99.90
5631;DHT22;2837;50.990;7.124;2023-04-12T08:52:00;11.10;99.90
5631;DHT22;2837;50.990;7.124;2023-04-12T08:54:27;11.10;99.90
5631;DHT22;2837;50.990;7.124;2023-04-12T08:56:55;11.10;99.90
5631;DHT22;2837;50.990;7.124;2023-04-12T08:59:24;11.10;99.90
5631;DHT22;2837;50.990;7.124;2023-04-12T09:01:52;11.10;99.90
5631;DHT22;2837;50.990;7.124;2023-04-12T09:04:18;11.10;99.90
5631;DHT22;2837;50.990;7.124;2023-04-12T09:06:44;11.10;99.90
5631;DHT22;2837;50.990;7.124;2023-04-12T09:09:10;11.20;99.90
5631;DHT22;2837;50.990;7.124;2023-04-12T09:11:36;11.20;99.90
5631;DHT22;2837;50.990;7.124;2023-04-12T09:14:01;11.20;99.90
5631;DHT22;2837;50.990;7.124;2023-04-12T09:16:34;11.30;99.90
5631;DHT22;2837;50.990;7.124;2023-04-12T09:19:00;11.30;99.90
5631;DHT22;2837;50.990;7.124;2023-04-12T09:21:27;11.40;99.90
5631;DHT22;2837;50.990;7.124;2023-04-12T09:24:06;11.40;99.90
5631;DHT22;2837;50.990;7.124;2023-04-12T09:26:34;11.40;99.90
5631;DHT22;2837;50.990;7.124;2023-04-12T09:29:00;11.40;99.90
5631;DHT22;2837;50.990;7.124;2023-04-12T09:31:26;11.50;99.90
5631;DHT22;2837;50.990;7.124;2023-04-12T09:33:52;11.50;99.90
5631;DHT22;2837;50.990;7.124;2023-04-12T09:36:37;11.50;99.90
5631;DHT22;2837;50.990;7.124;2023-04-12T09:39:02;11.60;99.90
5631;DHT22;2837;50.990;7.124;2023-04-12T09:41:29;11.60;99.90
5631;DHT22;2837;50.990;7.124;2023-04-12T09:43:57;11.70;99.90
5631;DHT22;2837;50.990;7.124;2023-04-12T09:46:23;11.60;99.90
5631;DHT22;2837;50.990;7.124;2023-04-12T09:48:50;11.60;99.90
5631;DHT22;2837;50.990;7.124;2023-04-12T09:51:26;11.60;99.90
5631;DHT22;2837;50.990;7.124;2023-04-12T09:53:58;11.60;99.90
5631;DHT22;2837;50.990;7.124;2023-04-12T09:56:27;11.50;99.90
5631;DHT22;2837;50.990;7.124;2023-04-12T09:58:56;11.50;99.90
5631;DHT22;2837;50.990;7.124;2023-04-12T10:01:21;11.70;99.90
5631;DHT22;2837;50.990;7.124;2023-04-12T10:03:49;11.70;99.90
5631;DHT22;2837;50.990;7.124;2023-04-12T10:06:14;11.80;99.90
5631;DHT22;2837;50.990;7.124;2023-04-12T10:08:41;12.00;99.90
5631;DHT22;2837;50.990;7.124;2023-04-12T10:11:06;11.60;99.90
5631;DHT22;2837;50.990;7.124;2023-04-12T10:13:34;11.70;99.90
5631;DHT22;2837;50.990;7.124;2023-04-12T10:16:02;11.70;99.90
5631;DHT22;2837;50.990;7.124;2023-04-12T10:18:30;12.20;99.90
5631;DHT22;2837;50.990;7.124;2023-04-12T10:20:57;11.70;99.90
5631;DHT22;2837;50.990;7.124;2023-04-12T10:23:23;11.80;99.90
5631;DHT22;2837;50.990;7.124;2023-04-12T10:25:50;11.90;99.90
5631;DHT22;2837;50.990;7.124;2023-04-12T10:28:19;11.90;99.90
5631;DHT22;2837;50.990;7.124;2023-04-12T10:30:48;12.00;99.90
5631;DHT22;2837;50.990;7.124;2023-04-12T10:33:17;12.10;99.90
5631;DHT22;2837;50.990;7.124;2023-04-12T10:38:19;12.10;99.90
5631;DHT22;2837;50.990;7.124;2023-04-12T10:41:20;12.20;99.90
5631;DHT22;2837;50.990;7.124;2023-04-12T10:43:49;12.10;99.90
5631;DHT22;2837;50.990;7.124;2023-04-12T10:46:51;12.20;99.90
5631;DHT22;2837;50.990;7.124;2023-04-12T10:49:17;12.10;99.90
5631;DHT22;2837;50.990;7.124;2023-04-12T10:54:34;12.10;99.90
5631;DHT22;2837;50.990;7.124;2023-04-12T10:57:00;12.10;99.90
5631;DHT22;2837;50.990;7.124;2023-04-12T10:59:50;12.10;99.90
5631;DHT22;2837;50.990;7.124;2023-04-12T11:02:16;12.10;99.90
5631;DHT22;2837;50.990;7.124;2023-04-12T11:05:07;12.10;99.90
5631;DHT22;2837;50.990;7.124;2023-04-12T11:07:41;12.10;99.90
5631;DHT22;2837;50.990;7.124;2023-04-12T11:10:14;12.10;99.90
5631;DHT22;2837;50.990;7.124;2023-04-12T11:12:41;12.10;99.90
5631;DHT22;2837;50.990;7.124;2023-04-12T11:15:10;12.10;99.90
5631;DHT22;2837;50.990;7.124;2023-04-12T11:17:36;12.10;99.90
5631;DHT22;2837;50.990;7.124;2023-04-12T11:20:02;12.10;99.90
5631;DHT22;2837;50.990;7.124;2023-04-12T11:22:31;12.10;99.90
5631;DHT22;2837;50.990;7.124;2023-04-12T11:24:59;12.10;99.90
5631;DHT22;2837;50.990;7.124;2023-04-12T11:27:26;12.20;99.90
5631;DHT22;2837;50.990;7.124;2023-04-12T11:29:53;12.10;99.90
5631;DHT22;2837;50.990;7.124;2023-04-12T11:32:21;12.00;99.90
5631;DHT22;2837;50.990;7.124;2023-04-12T11:34:47;12.10;99.90
5631;DHT22;2837;50.990;7.124;2023-04-12T11:37:13;11.90;99.90
5631;DHT22;2837;50.990;7.124;2023-04-12T11:39:41;11.80;99.90
5631;DHT22;2837;50.990;7.124;2023-04-12T11:42:16;11.80;99.90
5631;DHT22;2837;50.990;7.124;2023-04-12T11:44:43;11.70;99.90
5631;DHT22;2837;50.990;7.124;2023-04-12T11:47:13;11.70;99.90
5631;DHT22;2837;50.990;7.124;2023-04-12T11:49:50;11.70;99.90
5631;DHT22;2837;50.990;7.124;2023-04-12T11:52:17;11.80;99.90
5631;DHT22;2837;50.990;7.124;2023-04-12T11:54:48;11.80;99.90
5631;DHT22;2837;50.990;7.124;2023-04-12T11:57:16;11.90;99.90
5631;DHT22;2837;50.990;7.124;2023-04-12T11:59:43;11.90;99.90
5631;DHT22;2837;50.990;7.124;2023-04-12T12:02:10;11.90;99.90
5631;DHT22;2837;50.990;7.124;2023-04-12T12:04:36;11.90;99.90
5631;DHT22;2837;50.990;7.124;2023-04-12T12:07:02;12.10;99.90
5631;DHT22;2837;50.990;7.124;2023-04-12T12:09:28;12.20;99.90
5631;DHT22;2837;50.990;7.124;2023-04-12T12:11:55;12.10;99.90
5631;DHT22;2837;50.990;7.124;2023-04-12T12:14:22;12.20;99.90
5631;DHT22;2837;50.990;7.124;2023-04-12T12:16:58;12.30;99.90
5631;DHT22;2837;50.990;7.124;2023-04-12T12:19:38;12.40;99.90
5631;DHT22;2837;50.990;7.124;2023-04-12T12:24:38;12.20;99.90
5631;DHT22;2837;50.990;7.124;2023-04-12T12:27:03;12.20;99.90
5631;DHT22;2837;50.990;7.124;2023-04-12T12:29:36;12.20;99.90
5631;DHT22;2837;50.990;7.124;2023-04-12T12:32:09;12.30;99.90
5631;DHT22;2837;50.990;7.124;2023-04-12T12:34:35;12.20;99.90
5631;DHT22;2837;50.990;7.124;2023-04-12T12:37:01;12.20;99.90
5631;DHT22;2837;50.990;7.124;2023-04-12T12:39:26;12.30;99.90
5631;DHT22;2837;50.990;7.124;2023-04-12T12:41:53;12.40;99.90
5631;DHT22;2837;50.990;7.124;2023-04-12T12:44:23;12.40;99.90
5631;DHT22;2837;50.990;7.124;2023-04-12T12:46:49;12.40;99.90
5631;DHT22;2837;50.990;7.124;2023-04-12T12:49:15;12.60;99.90
5631;DHT22;2837;50.990;7.124;2023-04-12T12:51:41;12.50;99.90
5631;DHT22;2837;50.990;7.124;2023-04-12T12:54:07;12.50;99.90
5631;DHT22;2837;50.990;7.124;2023-04-12T12:56:32;12.50;99.90
5631;DHT22;2837;50.990;7.124;2023-04-12T12:59:00;12.50;99.90
5631;DHT22;2837;50.990;7.124;2023-04-12T13:01:25;12.40;99.90
5631;DHT22;2837;50.990;7.124;2023-04-12T13:03:52;12.60;99.90
5631;DHT22;2837;50.990;7.124;2023-04-12T13:06:17;12.70;99.90
5631;DHT22;2837;50.990;7.124;2023-04-12T13:08:43;12.60;99.90
5631;DHT22;2837;50.990;7.124;2023-04-12T13:11:09;12.60;99.90
5631;DHT22;2837;50.990;7.124;2023-04-12T13:13:34;12.80;99.90
5631;DHT22;2837;50.990;7.124;2023-04-12T13:16:00;12.60;99.90
5631;DHT22;2837;50.990;7.124;2023-04-12T13:18:26;12.60;99.90
5631;DHT22;2837;50.990;7.124;2023-04-12T13:20:51;12.70;99.90
5631;DHT22;2837;50.990;7.124;2023-04-12T13:23:17;12.60;99.90
5631;DHT22;2837;50.990;7.124;2023-04-12T13:25:43;12.70;99.90
5631;DHT22;2837;50.990;7.124;2023-04-12T13:28:08;12.70;99.90
5631;DHT22;2837;50.990;7.124;2023-04-12T13:30:34;12.70;99.90
5631;DHT22;2837;50.990;7.124;2023-04-12T13:33:00;12.80;99.90
5631;DHT22;2837;50.990;7.124;2023-04-12T13:35:26;12.80;99.90
5631;DHT22;2837;50.990;7.124;2023-04-12T13:37:51;12.80;99.90
5631;DHT22;2837;50.990;7.124;2023-04-12T13:40:17;12.80;99.90
5631;DHT22;2837;50.990;7.124;2023-04-12T13:42:42;12.80;99.90
5631;DHT22;2837;50.990;7.124;2023-04-12T13:45:09;12.70;99.90
5631;DHT22;2837;50.990;7.124;2023-04-12T13:47:35;12.70;99.90
5631;DHT22;2837;50.990;7.124;2023-04-12T13:50:01;12.70;99.90
5631;DHT22;2837;50.990;7.124;2023-04-12T13:52:26;12.60;99.90
5631;DHT22;2837;50.990;7.124;2023-04-12T13:54:52;12.60;99.90
5631;DHT22;2837;50.990;7.124;2023-04-12T14:00:39;12.60;99.90
5631;DHT22;2837;50.990;7.124;2023-04-12T14:03:06;12.60;99.90
5631;DHT22;2837;50.990;7.124;2023-04-12T14:05:32;12.60;99.90
5631;DHT22;2837;50.990;7.124;2023-04-12T14:07:58;12.70;99.90
5631;DHT22;2837;50.990;7.124;2023-04-12T14:10:23;12.70;99.90
5631;DHT22;2837;50.990;7.124;2023-04-12T14:12:49;12.90;99.90
5631;DHT22;2837;50.990;7.124;2023-04-12T14:15:14;12.80;99.90
5631;DHT22;2837;50.990;7.124;2023-04-12T14:17:40;12.80;99.90
5631;DHT22;2837;50.990;7.124;2023-04-12T14:20:07;12.90;99.90
5631;DHT22;2837;50.990;7.124;2023-04-12T14:22:36;12.90;99.90
5631;DHT22;2837;50.990;7.124;2023-04-12T14:25:02;12.90;99.90
5631;DHT22;2837;50.990;7.124;2023-04-12T14:27:28;12.90;99.90
5631;DHT22;2837;50.990;7.124;2023-04-12T14:29:53;13.00;99.90
5631;DHT22;2837;50.990;7.124;2023-04-12T14:32:19;13.00;99.90
5631;DHT22;2837;50.990;7.124;2023-04-12T14:34:44;13.10;99.90
5631;DHT22;2837;50.990;7.124;2023-04-12T14:37:10;13.10;99.90
5631;DHT22;2837;50.990;7.124;2023-04-12T14:39:36;13.10;99.90
5631;DHT22;2837;50.990;7.124;2023-04-12T14:42:02;13.20;99.90
5631;DHT22;2837;50.990;7.124;2023-04-12T14:44:28;13.20;99.90
5631;DHT22;2837;50.990;7.124;2023-04-12T14:46:53;13.20;99.90
5631;DHT22;2837;50.990;7.124;2023-04-12T14:49:19;13.10;99.90
5631;DHT22;2837;50.990;7.124;2023-04-12T14:51:44;13.10;99.90
5631;DHT22;2837;50.990;7.124;2023-04-12T14:54:10;13.00;99.90
5631;DHT22;2837;50.990;7.124;2023-04-12T14:56:35;13.00;99.90
5631;DHT22;2837;50.990;7.124;2023-04-12T14:59:01;13.00;99.90
5631;DHT22;2837;50.990;7.124;2023-04-12T15:01:26;12.90;99.90
5631;DHT22;2837;50.990;7.124;2023-04-12T15:03:53;12.80;99.90
5631;DHT22;2837;50.990;7.124;2023-04-12T15:06:20;12.90;99.90
5631;DHT22;2837;50.990;7.124;2023-04-12T15:08:46;12.80;99.90
5631;DHT22;2837;50.990;7.124;2023-04-12T15:11:13;12.80;99.90
5631;DHT22;2837;50.990;7.124;2023-04-12T15:13:40;12.80;99.90
5631;DHT22;2837;50.990;7.124;2023-04-12T15:16:09;12.80;99.90
5631;DHT22;2837;50.990;7.124;2023-04-12T15:18:37;12.80;99.90
5631;DHT22;2837;50.990;7.124;2023-04-12T15:21:13;12.80;99.90
5631;DHT22;2837;50.990;7.124;2023-04-12T15:23:40;12.70;99.90
5631;DHT22;2837;50.990;7.124;2023-04-12T15:26:06;12.60;99.90
5631;DHT22;2837;50.990;7.124;2023-04-12T15:28:33;12.60;99.90
5631;DHT22;2837;50.990;7.124;2023-04-12T15:30:59;12.60;99.90
5631;DHT22;2837;50.990;7.124;2023-04-12T15:33:25;12.60;99.90
5631;DHT22;2837;50.990;7.124;2023-04-12T15:35:52;12.50;99.90
5631;DHT22;2837;50.990;7.124;2023-04-12T15:38:21;12.60;99.90
5631;DHT22;2837;50.990;7.124;2023-04-12T15:40:53;12.40;99.90
5631;DHT22;2837;50.990;7.124;2023-04-12T15:43:19;12.40;99.90
5631;DHT22;2837;50.990;7.124;2023-04-12T15:45:44;12.20;99.90
5631;DHT22;2837;50.990;7.124;2023-04-12T15:48:10;12.20;99.90
5631;DHT22;2837;50.990;7.124;2023-04-12T15:50:36;11.90;99.90
5631;DHT22;2837;50.990;7.124;2023-04-12T15:53:01;11.90;99.90
5631;DHT22;2837;50.990;7.124;2023-04-12T15:55:27;11.90;99.90
5631;DHT22;2837;50.990;7.124;2023-04-12T15:57:52;11.80;99.90
5631;DHT22;2837;50.990;7.124;2023-04-12T16:00:18;11.80;99.90
5631;DHT22;2837;50.990;7.124;2023-04-12T16:02:54;11.80;99.90
5631;DHT22;2837;50.990;7.124;2023-04-12T16:05:23;11.80;99.90
5631;DHT22;2837;50.990;7.124;2023-04-12T16:07:49;11.80;99.90
5631;DHT22;2837;50.990;7.124;2023-04-12T16:10:19;11.80;99.90
5631;DHT22;2837;50.990;7.124;2023-04-12T16:12:49;11.80;99.90
5631;DHT22;2837;50.990;7.124;2023-04-12T16:15:16;11.80;99.90
5631;DHT22;2837;50.990;7.124;2023-04-12T16:17:47;11.70;99.90
5631;DHT22;2837;50.990;7.124;2023-04-12T16:20:16;11.80;99.90
5631;DHT22;2837;50.990;7.124;2023-04-12T16:22:47;11.70;99.90
5631;DHT22;2837;50.990;7.124;2023-04-12T16:25:13;11.70;99.90
5631;DHT22;2837;50.990;7.124;2023-04-12T16:27:39;11.70;99.90
5631;DHT22;2837;50.990;7.124;2023-04-12T16:30:05;11.70;99.90
5631;DHT22;2837;50.990;7.124;2023-04-12T16:32:33;11.60;99.90
5631;DHT22;2837;50.990;7.124;2023-04-12T16:35:00;11.70;99.90
5631;DHT22;2837;50.990;7.124;2023-04-12T16:37:27;11.70;99.90
5631;DHT22;2837;50.990;7.124;2023-04-12T16:39:53;11.70;99.90
5631;DHT22;2837;50.990;7.124;2023-04-12T16:42:19;11.50;99.90
5631;DHT22;2837;50.990;7.124;2023-04-12T16:44:46;11.60;99.90
5631;DHT22;2837;50.990;7.124;2023-04-12T16:47:12;11.60;99.90
5631;DHT22;2837;50.990;7.124;2023-04-12T16:49:38;11.60;99.90
5631;DHT22;2837;50.990;7.124;2023-04-12T16:52:03;11.60;99.90
5631;DHT22;2837;50.990;7.124;2023-04-12T16:54:29;11.50;99.90
5631;DHT22;2837;50.990;7.124;2023-04-12T16:56:55;11.50;99.90
5631;DHT22;2837;50.990;7.124;2023-04-12T16:59:22;11.70;99.90
5631;DHT22;2837;50.990;7.124;2023-04-12T17:01:48;11.50;99.90
5631;DHT22;2837;50.990;7.124;2023-04-12T17:04:14;11.40;99.90
5631;DHT22;2837;50.990;7.124;2023-04-12T17:06:40;11.50;99.90
5631;DHT22;2837;50.990;7.124;2023-04-12T17:09:07;11.50;99.90
5631;DHT22;2837;50.990;7.124;2023-04-12T17:11:34;11.60;99.90
5631;DHT22;2837;50.990;7.124;2023-04-12T17:14:00;11.60;99.90
5631;DHT22;2837;50.990;7.124;2023-04-12T17:16:26;11.70;99.90
5631;DHT22;2837;50.990;7.124;2023-04-12T17:18:52;11.70;99.90
5631;DHT22;2837;50.990;7.124;2023-04-12T17:21:17;11.60;99.90
5631;DHT22;2837;50.990;7.124;2023-04-12T17:23:44;11.60;99.90
5631;DHT22;2837;50.990;7.124;2023-04-12T17:26:12;11.70;99.90
5631;DHT22;2837;50.990;7.124;2023-04-12T17:28:38;11.70;99.90
5631;DHT22;2837;50.990;7.124;2023-04-12T17:31:04;11.80;99.90
5631;DHT22;2837;50.990;7.124;2023-04-12T17:33:30;11.60;99.90
5631;DHT22;2837;50.990;7.124;2023-04-12T17:35:55;11.70;99.90
5631;DHT22;2837;50.990;7.124;2023-04-12T17:38:21;11.70;99.90
5631;DHT22;2837;50.990;7.124;2023-04-12T17:40:47;11.70;99.90
5631;DHT22;2837;50.990;7.124;2023-04-12T17:43:12;11.70;99.90
5631;DHT22;2837;50.990;7.124;2023-04-12T17:45:38;11.60;99.90
5631;DHT22;2837;50.990;7.124;2023-04-12T17:48:04;11.50;99.90
5631;DHT22;2837;50.990;7.124;2023-04-12T17:50:30;11.50;99.90
5631;DHT22;2837;50.990;7.124;2023-04-12T17:52:55;11.40;99.90
5631;DHT22;2837;50.990;7.124;2023-04-12T17:55:25;11.40;99.90
5631;DHT22;2837;50.990;7.124;2023-04-12T17:57:51;11.40;99.90
5631;DHT22;2837;50.990;7.124;2023-04-12T18:00:18;11.30;99.90
5631;DHT22;2837;50.990;7.124;2023-04-12T18:02:45;11.30;99.90
5631;DHT22;2837;50.990;7.124;2023-04-12T18:05:11;11.20;99.90
5631;DHT22;2837;50.990;7.124;2023-04-12T18:07:37;11.20;99.90
5631;DHT22;2837;50.990;7.124;2023-04-12T18:10:06;11.10;99.90
5631;DHT22;2837;50.990;7.124;2023-04-12T18:12:31;11.10;99.90
5631;DHT22;2837;50.990;7.124;2023-04-12T18:14:57;11.20;99.90
5631;DHT22;2837;50.990;7.124;2023-04-12T18:17:23;11.20;99.90
5631;DHT22;2837;50.990;7.124;2023-04-12T18:19:48;11.10;99.90
5631;DHT22;2837;50.990;7.124;2023-04-12T18:22:14;11.10;99.90
5631;DHT22;2837;50.990;7.124;2023-04-12T18:24:40;11.00;99.90
5631;DHT22;2837;50.990;7.124;2023-04-12T18:27:05;10.90;99.90
5631;DHT22;2837;50.990;7.124;2023-04-12T18:29:32;10.90;99.90
5631;DHT22;2837;50.990;7.124;2023-04-12T18:31:58;10.90;99.90
5631;DHT22;2837;50.990;7.124;2023-04-12T18:34:23;10.80;99.90
5631;DHT22;2837;50.990;7.124;2023-04-12T18:36:49;10.90;99.90
5631;DHT22;2837;50.990;7.124;2023-04-12T18:39:15;10.90;99.90
5631;DHT22;2837;50.990;7.124;2023-04-12T18:41:41;10.80;99.90
5631;DHT22;2837;50.990;7.124;2023-04-12T18:44:07;10.90;99.90
5631;DHT22;2837;50.990;7.124;2023-04-12T18:46:40;10.80;99.90
5631;DHT22;2837;50.990;7.124;2023-04-12T18:49:06;10.70;99.90
5631;DHT22;2837;50.990;7.124;2023-04-12T18:51:33;10.70;99.90
5631;DHT22;2837;50.990;7.124;2023-04-12T18:54:00;10.70;99.90
5631;DHT22;2837;50.990;7.124;2023-04-12T18:56:25;10.60;99.90
5631;DHT22;2837;50.990;7.124;2023-04-12T18:58:52;10.70;99.90
5631;DHT22;2837;50.990;7.124;2023-04-12T19:01:18;10.70;99.90
5631;DHT22;2837;50.990;7.124;2023-04-12T19:03:44;10.70;99.90
5631;DHT22;2837;50.990;7.124;2023-04-12T19:06:11;10.70;99.90
5631;DHT22;2837;50.990;7.124;2023-04-12T19:08:38;10.60;99.90
5631;DHT22;2837;50.990;7.124;2023-04-12T19:11:04;10.60;99.90
5631;DHT22;2837;50.990;7.124;2023-04-12T19:13:31;10.60;99.90
5631;DHT22;2837;50.990;7.124;2023-04-12T19:15:56;10.60;99.90
5631;DHT22;2837;50.990;7.124;2023-04-12T19:18:23;10.60;99.90
5631;DHT22;2837;50.990;7.124;2023-04-12T19:20:51;10.50;99.90
5631;DHT22;2837;50.990;7.124;2023-04-12T19:23:18;10.50;99.90
5631;DHT22;2837;50.990;7.124;2023-04-12T19:25:44;10.50;99.90
5631;DHT22;2837;50.990;7.124;2023-04-12T19:28:11;10.40;99.90
5631;DHT22;2837;50.990;7.124;2023-04-12T19:30:37;10.40;99.90
5631;DHT22;2837;50.990;7.124;2023-04-12T19:33:02;10.40;99.90
5631;DHT22;2837;50.990;7.124;2023-04-12T19:35:29;10.40;99.90
5631;DHT22;2837;50.990;7.124;2023-04-12T19:37:57;10.40;99.90
5631;DHT22;2837;50.990;7.124;2023-04-12T19:40:23;10.40;99.90
5631;DHT22;2837;50.990;7.124;2023-04-12T19:42:48;10.40;99.90
5631;DHT22;2837;50.990;7.124;2023-04-12T19:45:14;10.40;99.90
5631;DHT22;2837;50.990;7.124;2023-04-12T19:47:39;10.50;99.90
5631;DHT22;2837;50.990;7.124;2023-04-12T19:50:12;10.40;99.90
5631;DHT22;2837;50.990;7.124;2023-04-12T19:52:40;10.30;99.90
5631;DHT22;2837;50.990;7.124;2023-04-12T19:55:07;10.20;99.90
5631;DHT22;2837;50.990;7.124;2023-04-12T19:57:33;10.20;99.90
5631;DHT22;2837;50.990;7.124;2023-04-12T20:00:01;10.10;99.90
5631;DHT22;2837;50.990;7.124;2023-04-12T20:02:29;10.00;99.90
5631;DHT22;2837;50.990;7.124;2023-04-12T20:04:54;10.00;99.90
5631;DHT22;2837;50.990;7.124;2023-04-12T20:07:20;10.00;99.90
5631;DHT22;2837;50.990;7.124;2023-04-12T20:09:45;10.20;99.90
5631;DHT22;2837;50.990;7.124;2023-04-12T20:12:11;9.90;99.90
5631;DHT22;2837;50.990;7.124;2023-04-12T20:14:36;9.90;99.90
5631;DHT22;2837;50.990;7.124;2023-04-12T20:17:03;9.90;99.90
5631;DHT22;2837;50.990;7.124;2023-04-12T20:19:30;10.00;99.90
5631;DHT22;2837;50.990;7.124;2023-04-12T20:21:56;9.90;99.90
5631;DHT22;2837;50.990;7.124;2023-04-12T20:24:26;9.90;99.90
5631;DHT22;2837;50.990;7.124;2023-04-12T20:26:57;9.90;99.90
5631;DHT22;2837;50.990;7.124;2023-04-12T20:29:22;9.90;99.90
5631;DHT22;2837;50.990;7.124;2023-04-12T20:31:48;9.90;99.90
5631;DHT22;2837;50.990;7.124;2023-04-12T20:34:14;9.90;99.90
5631;DHT22;2837;50.990;7.124;2023-04-12T20:36:41;9.90;99.90
5631;DHT22;2837;50.990;7.124;2023-04-12T20:39:07;9.80;99.90
5631;DHT22;2837;50.990;7.124;2023-04-12T20:41:36;9.80;99.90
5631;DHT22;2837;50.990;7.124;2023-04-12T20:44:03;9.70;99.90
5631;DHT22;2837;50.990;7.124;2023-04-12T20:46:28;9.80;99.90
5631;DHT22;2837;50.990;7.124;2023-04-12T20:48:55;9.80;99.90
5631;DHT22;2837;50.990;7.124;2023-04-12T20:51:22;10.00;99.90
5631;DHT22;2837;50.990;7.124;2023-04-12T20:53:48;9.70;99.90
5631;DHT22;2837;50.990;7.124;2023-04-12T20:56:15;9.70;99.90
5631;DHT22;2837;50.990;7.124;2023-04-12T20:58:44;9.70;99.90
